KFMN/FMN METAR and TAF weather

Enter ICAO airport designator
Station Type Date Time Source
KFMN METAR 2019/11/18 03:53 UTC NOAA

KFMN 180353Z 25009KT 10SM CLR 09/M12 A3017 RMK AO2 SLP213 T00891122


Station Type Date Time Source
KFMN Decoded METAR 2019/11/18 03:53 UTC NOAA

FARMINGTON FOUR CORNERS, NM, United States (KFMN) 36-45N 108-14W 1685M
Nov 17, 2019 - 10:53 PM EST / 2019.11.18 0353 UTC
Wind: from the WSW (250 degrees) at 10 MPH (9 KT):0
Visibility: 10 mile(s):0
Sky conditions: clear
Temperature: 48.0 F (8.9 C)
Dew Point: 10.0 F (-12.2 C)
Relative Humidity: 21%
Pressure (altimeter): 30.17 in. Hg (1021 hPa)
ob: KFMN 180353Z 25009KT 10SM CLR 09/M12 A3017 RMK AO2 SLP213 T00891122
cycle: 4

Station Type Date Time Source
KFMN TAF 2019/11/17 18:22 UTC NOAA

TAF KFMN 171720Z 1718/1818 VRB05KT P6SM FEW250
FM171900 28011G19KT P6SM FEW250
FM180200 32006KT P6SM FEW250
FM180900 07005KT P6SM FEW250

Example: see airport list